sensor_id;sensor_type;location;lat;lon;timestamp;temperature;humidity
21489;DHT22;10906;45.194;5.684;2022-12-18T06:00:19;0.40;99.90
21489;DHT22;10906;45.194;5.684;2022-12-18T06:03:06;0.40;99.90
21489;DHT22;10906;45.194;5.684;2022-12-18T06:05:58;2.10;99.90
21489;DHT22;10906;45.194;5.684;2022-12-18T06:08:46;1.80;99.90
21489;DHT22;10906;45.194;5.684;2022-12-18T06:11:34;2.20;99.90
21489;DHT22;10906;45.194;5.684;2022-12-18T06:14:26;1.80;99.90
21489;DHT22;10906;45.194;5.684;2022-12-18T06:17:13;1.70;99.90
21489;DHT22;10906;45.194;5.684;2022-12-18T06:20:05;0.20;99.90
21489;DHT22;10906;45.194;5.684;2022-12-18T06:22:50;0.50;99.90
21489;DHT22;10906;45.194;5.684;2022-12-18T06:25:40;1.70;99.90
21489;DHT22;10906;45.194;5.684;2022-12-18T06:28:37;2.20;99.90
21489;DHT22;10906;45.194;5.684;2022-12-18T06:31:21;0.80;99.90
21489;DHT22;10906;45.194;5.684;2022-12-18T06:34:08;0.60;99.90
21489;DHT22;10906;45.194;5.684;2022-12-18T06:36:55;2.30;99.90
21489;DHT22;10906;45.194;5.684;2022-12-18T06:39:47;2.20;99.90
21489;DHT22;10906;45.194;5.684;2022-12-18T06:42:34;0.70;99.90
21489;DHT22;10906;45.194;5.684;2022-12-18T06:45:26;2.50;99.90
21489;DHT22;10906;45.194;5.684;2022-12-18T06:48:10;0.70;99.90
21489;DHT22;10906;45.194;5.684;2022-12-18T06:50:57;2.40;99.90
21489;DHT22;10906;45.194;5.684;2022-12-18T06:53:49;2.10;99.90
21489;DHT22;10906;45.194;5.684;2022-12-18T06:56:38;0.40;99.90
21489;DHT22;10906;45.194;5.684;2022-12-18T06:59:30;2.30;99.90
21489;DHT22;10906;45.194;5.684;2022-12-18T07:02:17;1.30;99.90
21489;DHT22;10906;45.194;5.684;2022-12-18T07:05:01;1.80;99.90
21489;DHT22;10906;45.194;5.684;2022-12-18T07:07:46;0.90;99.90
21489;DHT22;10906;45.194;5.684;2022-12-18T07:10:30;0.90;99.90
21489;DHT22;10906;45.194;5.684;2022-12-18T07:13:16;2.40;99.90
21489;DHT22;10906;45.194;5.684;2022-12-18T07:16:25;0.90;99.90
21489;DHT22;10906;45.194;5.684;2022-12-18T07:19:24;1.00;99.90
21489;DHT22;10906;45.194;5.684;2022-12-18T07:22:12;0.90;99.90
21489;DHT22;10906;45.194;5.684;2022-12-18T07:25:01;2.70;99.90
21489;DHT22;10906;45.194;5.684;2022-12-18T07:27:50;2.60;99.90
21489;DHT22;10906;45.194;5.684;2022-12-18T07:30:37;1.00;99.90
21489;DHT22;10906;45.194;5.684;2022-12-18T07:33:29;2.10;99.90
21489;DHT22;10906;45.194;5.684;2022-12-18T07:36:14;0.90;99.90
21489;DHT22;10906;45.194;5.684;2022-12-18T07:39:10;1.50;99.90
21489;DHT22;10906;45.194;5.684;2022-12-18T07:41:54;2.60;99.90
21489;DHT22;10906;45.194;5.684;2022-12-18T07:45:07;1.90;99.90
21489;DHT22;10906;45.194;5.684;2022-12-18T07:47:53;0.90;99.90
21489;DHT22;10906;45.194;5.684;2022-12-18T07:51:00;1.20;99.90
21489;DHT22;10906;45.194;5.684;2022-12-18T07:53:56;2.80;99.90
21489;DHT22;10906;45.194;5.684;2022-12-18T07:56:41;1.90;99.90
21489;DHT22;10906;45.194;5.684;2022-12-18T07:59:28;2.40;99.90
21489;DHT22;10906;45.194;5.684;2022-12-18T08:02:22;1.00;99.90
21489;DHT22;10906;45.194;5.684;2022-12-18T08:05:07;1.00;99.90
21489;DHT22;10906;45.194;5.684;2022-12-18T08:07:53;1.00;99.90
21489;DHT22;10906;45.194;5.684;2022-12-18T08:10:48;2.00;99.90
21489;DHT22;10906;45.194;5.684;2022-12-18T08:13:35;2.20;99.90
21489;DHT22;10906;45.194;5.684;2022-12-18T08:16:27;2.70;99.90
21489;DHT22;10906;45.194;5.684;2022-12-18T08:19:14;0.90;99.90
21489;DHT22;10906;45.194;5.684;2022-12-18T08:22:06;-0.70;99.90
21489;DHT22;10906;45.194;5.684;2022-12-18T08:24:51;1.80;99.90
21489;DHT22;10906;45.194;5.684;2022-12-18T08:27:44;2.50;99.90
21489;DHT22;10906;45.194;5.684;2022-12-18T08:30:32;2.80;99.90
21489;DHT22;10906;45.194;5.684;2022-12-18T08:33:19;2.20;99.90
21489;DHT22;10906;45.194;5.684;2022-12-18T08:36:11;0.10;99.90
21489;DHT22;10906;45.194;5.684;2022-12-18T08:38:59;0.80;99.90
21489;DHT22;10906;45.194;5.684;2022-12-18T08:41:45;2.20;99.90
21489;DHT22;10906;45.194;5.684;2022-12-18T08:44:50;0.90;99.90
21489;DHT22;10906;45.194;5.684;2022-12-18T08:47:40;1.60;99.90
21489;DHT22;10906;45.194;5.684;2022-12-18T08:50:24;2.50;99.90
21489;DHT22;10906;45.194;5.684;2022-12-18T08:53:11;2.30;99.90
21489;DHT22;10906;45.194;5.684;2022-12-18T08:58:56;2.90;99.90
21489;DHT22;10906;45.194;5.684;2022-12-18T09:01:41;2.50;99.90
21489;DHT22;10906;45.194;5.684;2022-12-18T09:04:28;2.30;99.90
21489;DHT22;10906;45.194;5.684;2022-12-18T09:07:29;2.70;99.90
21489;DHT22;10906;45.194;5.684;2022-12-18T09:10:16;1.40;99.90
21489;DHT22;10906;45.194;5.684;2022-12-18T09:13:37;1.50;99.90
21489;DHT22;10906;45.194;5.684;2022-12-18T09:16:22;1.50;99.90
21489;DHT22;10906;45.194;5.684;2022-12-18T09:19:12;2.50;99.90
21489;DHT22;10906;45.194;5.684;2022-12-18T09:25:36;1.90;99.90
21489;DHT22;10906;45.194;5.684;2022-12-18T09:28:20;2.60;99.90
21489;DHT22;10906;45.194;5.684;2022-12-18T09:31:07;3.00;99.90
21489;DHT22;10906;45.194;5.684;2022-12-18T09:33:52;2.40;99.90
21489;DHT22;10906;45.194;5.684;2022-12-18T09:36:38;2.50;99.90
21489;DHT22;10906;45.194;5.684;2022-12-18T09:39:23;2.60;99.90
21489;DHT22;10906;45.194;5.684;2022-12-18T09:42:17;4.30;99.90
21489;DHT22;10906;45.194;5.684;2022-12-18T09:45:12;2.90;99.90
21489;DHT22;10906;45.194;5.684;2022-12-18T09:47:57;3.20;99.90
21489;DHT22;10906;45.194;5.684;2022-12-18T09:50:42;5.00;99.90
21489;DHT22;10906;45.194;5.684;2022-12-18T09:53:31;3.80;99.90
21489;DHT22;10906;45.194;5.684;2022-12-18T09:56:19;3.80;99.90
21489;DHT22;10906;45.194;5.684;2022-12-18T10:02:17;4.40;99.90
21489;DHT22;10906;45.194;5.684;2022-12-18T10:05:16;4.70;99.90
21489;DHT22;10906;45.194;5.684;2022-12-18T10:11:09;5.30;99.90
21489;DHT22;10906;45.194;5.684;2022-12-18T10:17:33;5.70;99.90
21489;DHT22;10906;45.194;5.684;2022-12-18T10:24:03;6.40;99.90
21489;DHT22;10906;45.194;5.684;2022-12-18T10:26:19;6.30;99.90
21489;DHT22;10906;45.194;5.684;2022-12-18T10:29:27;6.70;99.90
21489;DHT22;10906;45.194;5.684;2022-12-18T10:32:18;6.80;99.90
21489;DHT22;10906;45.194;5.684;2022-12-18T10:35:03;7.00;99.90
21489;DHT22;10906;45.194;5.684;2022-12-18T10:41:08;7.20;99.90
21489;DHT22;10906;45.194;5.684;2022-12-18T10:44:20;7.40;99.90
21489;DHT22;10906;45.194;5.684;2022-12-18T10:47:09;7.40;99.90
21489;DHT22;10906;45.194;5.684;2022-12-18T10:49:55;7.40;99.90
21489;DHT22;10906;45.194;5.684;2022-12-18T10:52:39;7.70;99.90
21489;DHT22;10906;45.194;5.684;2022-12-18T10:55:37;7.60;99.90
21489;DHT22;10906;45.194;5.684;2022-12-18T10:58:26;7.90;99.90
21489;DHT22;10906;45.194;5.684;2022-12-18T11:01:13;8.20;99.90
21489;DHT22;10906;45.194;5.684;2022-12-18T11:04:02;8.40;99.90
21489;DHT22;10906;45.194;5.684;2022-12-18T11:07:08;8.60;99.90
21489;DHT22;10906;45.194;5.684;2022-12-18T11:10:00;8.80;99.90
21489;DHT22;10906;45.194;5.684;2022-12-18T11:12:50;9.10;99.90
21489;DHT22;10906;45.194;5.684;2022-12-18T11:15:37;9.10;99.90
21489;DHT22;10906;45.194;5.684;2022-12-18T11:18:31;9.20;99.90
21489;DHT22;10906;45.194;5.684;2022-12-18T11:21:19;9.30;99.90
21489;DHT22;10906;45.194;5.684;2022-12-18T11:24:07;9.20;99.90
21489;DHT22;10906;45.194;5.684;2022-12-18T11:27:05;9.10;99.90
21489;DHT22;10906;45.194;5.684;2022-12-18T11:33:21;9.20;99.90
21489;DHT22;10906;45.194;5.684;2022-12-18T11:36:08;9.30;99.90
21489;DHT22;10906;45.194;5.684;2022-12-18T11:38:54;9.40;99.90
21489;DHT22;10906;45.194;5.684;2022-12-18T11:42:05;9.20;99.90
21489;DHT22;10906;45.194;5.684;2022-12-18T11:51:11;9.80;99.90
21489;DHT22;10906;45.194;5.684;2022-12-18T11:54:00;9.80;99.90
21489;DHT22;10906;45.194;5.684;2022-12-18T11:56:51;10.00;99.90
21489;DHT22;10906;45.194;5.684;2022-12-18T12:13:44;9.20;99.90
21489;DHT22;10906;45.194;5.684;2022-12-18T12:23:18;9.00;99.90
21489;DHT22;10906;45.194;5.684;2022-12-18T12:36:35;8.90;99.90
21489;DHT22;10906;45.194;5.684;2022-12-18T12:39:22;8.90;99.90
21489;DHT22;10906;45.194;5.684;2022-12-18T12:42:20;9.50;99.90
21489;DHT22;10906;45.194;5.684;2022-12-18T12:48:55;13.20;99.50
21489;DHT22;10906;45.194;5.684;2022-12-18T12:51:43;13.80;98.20
21489;DHT22;10906;45.194;5.684;2022-12-18T12:54:49;13.10;97.60
21489;DHT22;10906;45.194;5.684;2022-12-18T13:11:46;12.00;99.90
21489;DHT22;10906;45.194;5.684;2022-12-18T13:15:32;10.20;99.80
21489;DHT22;10906;45.194;5.684;2022-12-18T13:18:57;12.20;98.10
21489;DHT22;10906;45.194;5.684;2022-12-18T13:30:11;13.40;96.80
21489;DHT22;10906;45.194;5.684;2022-12-18T13:39:31;11.70;98.50
21489;DHT22;10906;45.194;5.684;2022-12-18T13:42:49;11.60;97.70
21489;DHT22;10906;45.194;5.684;2022-12-18T13:46:45;10.60;99.60
21489;DHT22;10906;45.194;5.684;2022-12-18T13:49:46;10.40;98.60
21489;DHT22;10906;45.194;5.684;2022-12-18T13:52:43;9.50;99.60
21489;DHT22;10906;45.194;5.684;2022-12-18T13:55:33;10.00;99.90
21489;DHT22;10906;45.194;5.684;2022-12-18T13:58:21;9.90;99.90
21489;DHT22;10906;45.194;5.684;2022-12-18T14:01:22;9.70;99.90
21489;DHT22;10906;45.194;5.684;2022-12-18T14:07:39;9.60;99.90
21489;DHT22;10906;45.194;5.684;2022-12-18T14:10:23;9.00;99.90
21489;DHT22;10906;45.194;5.684;2022-12-18T14:13:10;8.90;99.90
21489;DHT22;10906;45.194;5.684;2022-12-18T14:16:01;8.70;99.90
21489;DHT22;10906;45.194;5.684;2022-12-18T14:18:55;8.60;99.90
21489;DHT22;10906;45.194;5.684;2022-12-18T14:21:49;8.50;99.90
21489;DHT22;10906;45.194;5.684;2022-12-18T14:29:34;8.20;99.90
21489;DHT22;10906;45.194;5.684;2022-12-18T14:36:52;7.40;99.90
21489;DHT22;10906;45.194;5.684;2022-12-18T14:39:40;7.70;99.90
21489;DHT22;10906;45.194;5.684;2022-12-18T14:43:08;7.50;99.90
21489;DHT22;10906;45.194;5.684;2022-12-18T14:45:53;8.60;99.90
21489;DHT22;10906;45.194;5.684;2022-12-18T14:48:41;7.40;99.90
21489;DHT22;10906;45.194;5.684;2022-12-18T14:51:27;7.20;99.90
21489;DHT22;10906;45.194;5.684;2022-12-18T14:54:18;7.10;99.90
21489;DHT22;10906;45.194;5.684;2022-12-18T14:57:20;7.20;99.90
21489;DHT22;10906;45.194;5.684;2022-12-18T15:00:16;7.10;99.90
21489;DHT22;10906;45.194;5.684;2022-12-18T15:03:06;7.10;99.90
21489;DHT22;10906;45.194;5.684;2022-12-18T15:05:51;7.00;99.90
21489;DHT22;10906;45.194;5.684;2022-12-18T15:08:37;6.70;99.90
21489;DHT22;10906;45.194;5.684;2022-12-18T15:12:02;6.90;99.90
21489;DHT22;10906;45.194;5.684;2022-12-18T15:14:59;6.90;99.90
21489;DHT22;10906;45.194;5.684;2022-12-18T15:18:15;6.80;99.90
21489;DHT22;10906;45.194;5.684;2022-12-18T15:21:09;8.20;99.90
21489;DHT22;10906;45.194;5.684;2022-12-18T15:24:32;6.20;99.90
21489;DHT22;10906;45.194;5.684;2022-12-18T15:27:36;6.10;99.90
21489;DHT22;10906;45.194;5.684;2022-12-18T15:30:30;6.70;99.90
21489;DHT22;10906;45.194;5.684;2022-12-18T15:33:26;6.50;99.90
21489;DHT22;10906;45.194;5.684;2022-12-18T15:36:32;7.30;99.90
21489;DHT22;10906;45.194;5.684;2022-12-18T15:39:20;6.60;99.90
21489;DHT22;10906;45.194;5.684;2022-12-18T15:42:10;7.40;99.90
21489;DHT22;10906;45.194;5.684;2022-12-18T15:45:19;6.20;99.90
21489;DHT22;10906;45.194;5.684;2022-12-18T15:52:20;6.10;99.90
21489;DHT22;10906;45.194;5.684;2022-12-18T15:55:15;5.40;99.90
21489;DHT22;10906;45.194;5.684;2022-12-18T15:58:18;6.10;99.90
21489;DHT22;10906;45.194;5.684;2022-12-18T16:01:13;5.90;99.90
21489;DHT22;10906;45.194;5.684;2022-12-18T16:03:57;5.90;99.90
21489;DHT22;10906;45.194;5.684;2022-12-18T16:06:45;5.90;99.90
21489;DHT22;10906;45.194;5.684;2022-12-18T16:09:30;6.20;99.90
21489;DHT22;10906;45.194;5.684;2022-12-18T16:12:21;6.90;99.90
21489;DHT22;10906;45.194;5.684;2022-12-18T16:15:20;5.80;99.90
21489;DHT22;10906;45.194;5.684;2022-12-18T16:18:08;6.90;99.90
21489;DHT22;10906;45.194;5.684;2022-12-18T16:21:01;5.70;99.90
21489;DHT22;10906;45.194;5.684;2022-12-18T16:23:45;5.60;99.90
21489;DHT22;10906;45.194;5.684;2022-12-18T16:26:35;5.60;99.90
21489;DHT22;10906;45.194;5.684;2022-12-18T16:29:28;5.60;99.90
21489;DHT22;10906;45.194;5.684;2022-12-18T16:32:20;5.60;99.90
21489;DHT22;10906;45.194;5.684;2022-12-18T16:35:30;5.50;99.90
21489;DHT22;10906;45.194;5.684;2022-12-18T16:38:16;5.50;99.90
21489;DHT22;10906;45.194;5.684;2022-12-18T16:41:15;5.50;99.90
21489;DHT22;10906;45.194;5.684;2022-12-18T16:44:16;3.90;99.90
21489;DHT22;10906;45.194;5.684;2022-12-18T16:47:00;5.50;99.90
21489;DHT22;10906;45.194;5.684;2022-12-18T16:49:48;6.00;99.90
21489;DHT22;10906;45.194;5.684;2022-12-18T16:56:09;4.10;99.90
21489;DHT22;10906;45.194;5.684;2022-12-18T16:59:02;5.30;99.90
21489;DHT22;10906;45.194;5.684;2022-12-18T17:01:47;5.30;99.90
21489;DHT22;10906;45.194;5.684;2022-12-18T17:04:39;5.30;99.90
21489;DHT22;10906;45.194;5.684;2022-12-18T17:07:25;5.10;99.90
21489;DHT22;10906;45.194;5.684;2022-12-18T17:10:19;5.00;99.90
21489;DHT22;10906;45.194;5.684;2022-12-18T17:13:06;4.90;99.90
21489;DHT22;10906;45.194;5.684;2022-12-18T17:15:54;5.10;99.90
21489;DHT22;10906;45.194;5.684;2022-12-18T17:23:17;5.70;99.90
21489;DHT22;10906;45.194;5.684;2022-12-18T17:26:10;5.40;99.90
21489;DHT22;10906;45.194;5.684;2022-12-18T17:28:56;5.00;99.90
21489;DHT22;10906;45.194;5.684;2022-12-18T17:31:43;6.80;99.90
21489;DHT22;10906;45.194;5.684;2022-12-18T17:34:37;5.10;99.90
21489;DHT22;10906;45.194;5.684;2022-12-18T17:37:23;5.70;99.90
21489;DHT22;10906;45.194;5.684;2022-12-18T17:40:08;5.20;99.90
21489;DHT22;10906;45.194;5.684;2022-12-18T17:43:18;5.20;99.90
21489;DHT22;10906;45.194;5.684;2022-12-18T17:46:06;5.30;99.90
21489;DHT22;10906;45.194;5.684;2022-12-18T17:48:51;5.30;99.90
21489;DHT22;10906;45.194;5.684;2022-12-18T17:51:35;5.30;99.90
21489;DHT22;10906;45.194;5.684;2022-12-18T17:54:30;5.30;99.90
21489;DHT22;10906;45.194;5.684;2022-12-18T17:57:19;5.20;99.90
21489;DHT22;10906;45.194;5.684;2022-12-18T18:00:04;5.80;99.90
21489;DHT22;10906;45.194;5.684;2022-12-18T18:02:49;5.30;99.90
21489;DHT22;10906;45.194;5.684;2022-12-18T18:05:43;5.40;99.90
21489;DHT22;10906;45.194;5.684;2022-12-18T18:08:27;5.30;99.90
21489;DHT22;10906;45.194;5.684;2022-12-18T18:11:17;5.40;99.90
21489;DHT22;10906;45.194;5.684;2022-12-18T18:14:20;5.40;99.90
21489;DHT22;10906;45.194;5.684;2022-12-18T18:17:04;5.40;99.90
21489;DHT22;10906;45.194;5.684;2022-12-18T18:19:49;5.40;99.90
21489;DHT22;10906;45.194;5.684;2022-12-18T18:22:33;5.40;99.90
21489;DHT22;10906;45.194;5.684;2022-12-18T18:25:18;5.40;99.90
21489;DHT22;10906;45.194;5.684;2022-12-18T18:28:02;5.40;99.90
21489;DHT22;10906;45.194;5.684;2022-12-18T18:30:46;5.40;99.90
21489;DHT22;10906;45.194;5.684;2022-12-18T18:33:32;6.30;99.90
21489;DHT22;10906;45.194;5.684;2022-12-18T18:36:16;5.50;99.90
21489;DHT22;10906;45.194;5.684;2022-12-18T18:39:00;6.30;99.90
21489;DHT22;10906;45.194;5.684;2022-12-18T18:41:46;5.50;99.90
21489;DHT22;10906;45.194;5.684;2022-12-18T18:44:30;5.40;99.90
21489;DHT22;10906;45.194;5.684;2022-12-18T18:47:15;5.50;99.90
21489;DHT22;10906;45.194;5.684;2022-12-18T18:49:59;5.40;99.90
21489;DHT22;10906;45.194;5.684;2022-12-18T18:52:46;5.40;99.90
21489;DHT22;10906;45.194;5.684;2022-12-18T18:55:32;5.80;99.90
21489;DHT22;10906;45.194;5.684;2022-12-18T18:58:16;5.40;99.90
21489;DHT22;10906;45.194;5.684;2022-12-18T19:01:03;7.00;99.90
21489;DHT22;10906;45.194;5.684;2022-12-18T19:03:49;5.30;99.90
21489;DHT22;10906;45.194;5.684;2022-12-18T19:06:34;5.40;99.90
21489;DHT22;10906;45.194;5.684;2022-12-18T19:09:18;5.30;99.90
21489;DHT22;10906;45.194;5.684;2022-12-18T19:12:03;6.50;99.90
21489;DHT22;10906;45.194;5.684;2022-12-18T19:15:06;5.30;99.90
21489;DHT22;10906;45.194;5.684;2022-12-18T19:17:50;5.30;99.90
21489;DHT22;10906;45.194;5.684;2022-12-18T19:20:35;5.30;99.90
21489;DHT22;10906;45.194;5.684;2022-12-18T19:23:20;5.30;99.90
21489;DHT22;10906;45.194;5.684;2022-12-18T19:26:06;5.30;99.90
21489;DHT22;10906;45.194;5.684;2022-12-18T19:28:50;5.40;99.90
21489;DHT22;10906;45.194;5.684;2022-12-18T19:31:35;5.30;99.90
21489;DHT22;10906;45.194;5.684;2022-12-18T19:34:20;5.30;99.90
21489;DHT22;10906;45.194;5.684;2022-12-18T19:37:04;5.30;99.90
21489;DHT22;10906;45.194;5.684;2022-12-18T19:39:49;5.40;99.90
21489;DHT22;10906;45.194;5.684;2022-12-18T19:42:33;5.40;99.90
21489;DHT22;10906;45.194;5.684;2022-12-18T19:45:18;5.40;99.90
21489;DHT22;10906;45.194;5.684;2022-12-18T19:48:03;5.40;99.90
21489;DHT22;10906;45.194;5.684;2022-12-18T19:50:50;5.40;99.90
21489;DHT22;10906;45.194;5.684;2022-12-18T19:53:37;5.40;99.90
21489;DHT22;10906;45.194;5.684;2022-12-18T19:56:31;5.80;99.90
21489;DHT22;10906;45.194;5.684;2022-12-18T19:59:16;5.40;99.90
21489;DHT22;10906;45.194;5.684;2022-12-18T20:02:00;5.40;99.90
21489;DHT22;10906;45.194;5.684;2022-12-18T20:04:45;5.50;99.90
21489;DHT22;10906;45.194;5.684;2022-12-18T20:07:29;5.50;99.90
21489;DHT22;10906;45.194;5.684;2022-12-18T20:10:14;5.50;99.90
21489;DHT22;10906;45.194;5.684;2022-12-18T20:13:01;5.90;99.90
21489;DHT22;10906;45.194;5.684;2022-12-18T20:15:46;6.70;99.90
21489;DHT22;10906;45.194;5.684;2022-12-18T20:18:30;5.40;99.90
21489;DHT22;10906;45.194;5.684;2022-12-18T20:21:14;5.40;99.90
21489;DHT22;10906;45.194;5.684;2022-12-18T20:23:59;5.20;99.90
21489;DHT22;10906;45.194;5.684;2022-12-18T20:26:44;5.00;99.90
21489;DHT22;10906;45.194;5.684;2022-12-18T20:29:34;4.90;99.90
21489;DHT22;10906;45.194;5.684;2022-12-18T20:32:18;4.90;99.90
21489;DHT22;10906;45.194;5.684;2022-12-18T20:35:03;4.60;99.90
21489;DHT22;10906;45.194;5.684;2022-12-18T20:37:48;4.50;99.90
21489;DHT22;10906;45.194;5.684;2022-12-18T20:40:33;4.50;99.90
21489;DHT22;10906;45.194;5.684;2022-12-18T20:43:17;4.30;99.90
21489;DHT22;10906;45.194;5.684;2022-12-18T20:46:04;4.50;99.90
21489;DHT22;10906;45.194;5.684;2022-12-18T20:48:49;4.50;99.90
21489;DHT22;10906;45.194;5.684;2022-12-18T20:51:34;5.50;99.90
21489;DHT22;10906;45.194;5.684;2022-12-18T20:54:26;5.00;99.90
21489;DHT22;10906;45.194;5.684;2022-12-18T20:57:11;4.60;99.90
21489;DHT22;10906;45.194;5.684;2022-12-18T20:59:55;4.60;99.90
21489;DHT22;10906;45.194;5.684;2022-12-18T21:02:39;4.60;99.90
21489;DHT22;10906;45.194;5.684;2022-12-18T21:05:23;4.50;99.90
21489;DHT22;10906;45.194;5.684;2022-12-18T21:08:09;4.60;99.90
21489;DHT22;10906;45.194;5.684;2022-12-18T21:10:53;4.60;99.90
21489;DHT22;10906;45.194;5.684;2022-12-18T21:13:40;4.70;99.90
21489;DHT22;10906;45.194;5.684;2022-12-18T21:16:24;4.60;99.90
21489;DHT22;10906;45.194;5.684;2022-12-18T21:19:14;6.20;99.90
21489;DHT22;10906;45.194;5.684;2022-12-18T21:21:58;4.70;99.90
21489;DHT22;10906;45.194;5.684;2022-12-18T21:24:43;6.10;99.90
21489;DHT22;10906;45.194;5.684;2022-12-18T21:27:28;4.40;99.90
21489;DHT22;10906;45.194;5.684;2022-12-18T21:30:17;4.80;99.90
21489;DHT22;10906;45.194;5.684;2022-12-18T21:33:01;4.80;99.90
21489;DHT22;10906;45.194;5.684;2022-12-18T21:35:48;4.80;99.90
21489;DHT22;10906;45.194;5.684;2022-12-18T21:38:33;4.80;99.90
21489;DHT22;10906;45.194;5.684;2022-12-18T21:41:18;4.80;99.90
21489;DHT22;10906;45.194;5.684;2022-12-18T21:44:24;4.80;99.90
21489;DHT22;10906;45.194;5.684;2022-12-18T21:47:09;4.90;99.90
21489;DHT22;10906;45.194;5.684;2022-12-18T21:49:56;4.90;99.90
21489;DHT22;10906;45.194;5.684;2022-12-18T21:52:41;4.90;99.90
21489;DHT22;10906;45.194;5.684;2022-12-18T21:55:25;5.40;99.90
21489;DHT22;10906;45.194;5.684;2022-12-18T21:58:10;4.90;99.90
21489;DHT22;10906;45.194;5.684;2022-12-18T22:00:57;6.00;99.90
21489;DHT22;10906;45.194;5.684;2022-12-18T22:03:49;5.50;99.90
21489;DHT22;10906;45.194;5.684;2022-12-18T22:06:41;4.90;99.90
21489;DHT22;10906;45.194;5.684;2022-12-18T22:09:28;4.80;99.90
21489;DHT22;10906;45.194;5.684;2022-12-18T22:12:13;4.80;99.90
21489;DHT22;10906;45.194;5.684;2022-12-18T22:15:17;4.70;99.90
21489;DHT22;10906;45.194;5.684;2022-12-18T22:18:02;4.70;99.90
21489;DHT22;10906;45.194;5.684;2022-12-18T22:20:59;4.60;99.90
21489;DHT22;10906;45.194;5.684;2022-12-18T22:23:51;4.60;99.90
21489;DHT22;10906;45.194;5.684;2022-12-18T22:26:37;4.80;99.90
21489;DHT22;10906;45.194;5.684;2022-12-18T22:29:23;5.20;99.90
21489;DHT22;10906;45.194;5.684;2022-12-18T22:32:29;4.60;99.90
21489;DHT22;10906;45.194;5.684;2022-12-18T22:35:16;4.60;99.90
21489;DHT22;10906;45.194;5.684;2022-12-18T22:38:05;4.70;99.90
21489;DHT22;10906;45.194;5.684;2022-12-18T22:40:49;4.70;99.90
21489;DHT22;10906;45.194;5.684;2022-12-18T22:43:33;5.00;99.90
21489;DHT22;10906;45.194;5.684;2022-12-18T22:46:18;5.90;99.90
21489;DHT22;10906;45.194;5.684;2022-12-18T22:49:04;5.00;99.90
21489;DHT22;10906;45.194;5.684;2022-12-18T22:51:49;5.10;99.90
21489;DHT22;10906;45.194;5.684;2022-12-18T22:54:34;6.40;99.90
21489;DHT22;10906;45.194;5.684;2022-12-18T22:57:23;5.30;99.90
